sensor_id;sensor_type;location;lat;lon;timestamp;pressure;altitude;pressure_sealevel;temperature;humidity
60240;BME280;46102;39.012;-7.064;2023-02-22T00:00:33;98785.16;;;10.76;84.34
60240;BME280;46102;39.012;-7.064;2023-02-22T00:02:43;98775.31;;;10.75;84.27
60240;BME280;46102;39.012;-7.064;2023-02-22T00:04:44;98787.41;;;10.74;84.19
60240;BME280;46102;39.012;-7.064;2023-02-22T00:06:45;98789.19;;;10.70;84.55
60240;BME280;46102;39.012;-7.064;2023-02-22T00:08:47;98783.13;;;10.59;84.73
60240;BME280;46102;39.012;-7.064;2023-02-22T00:10:49;98788.91;;;10.57;84.97
60240;BME280;46102;39.012;-7.064;2023-02-22T00:12:52;98785.16;;;10.53;85.23
60240;BME280;46102;39.012;-7.064;2023-02-22T00:14:54;98792.59;;;10.53;85.30
60240;BME280;46102;39.012;-7.064;2023-02-22T00:16:54;98783.25;;;10.54;85.20
60240;BME280;46102;39.012;-7.064;2023-02-22T00:18:58;98787.75;;;10.50;85.29
60240;BME280;46102;39.012;-7.064;2023-02-22T00:20:59;98789.69;;;10.49;85.39
60240;BME280;46102;39.012;-7.064;2023-02-22T00:23:01;98791.72;;;10.44;85.64
60240;BME280;46102;39.012;-7.064;2023-02-22T00:25:01;98792.84;;;10.43;85.65
60240;BME280;46102;39.012;-7.064;2023-02-22T00:27:02;98788.47;;;10.41;85.72
60240;BME280;46102;39.012;-7.064;2023-02-22T00:29:03;98787.97;;;10.39;85.40
60240;BME280;46102;39.012;-7.064;2023-02-22T00:31:05;98785.22;;;10.39;85.46
60240;BME280;46102;39.012;-7.064;2023-02-22T00:33:06;98791.50;;;10.40;85.54
60240;BME280;46102;39.012;-7.064;2023-02-22T00:35:07;98792.13;;;10.37;85.50
60240;BME280;46102;39.012;-7.064;2023-02-22T00:37:11;98787.59;;;10.32;85.73
60240;BME280;46102;39.012;-7.064;2023-02-22T00:39:12;98786.84;;;10.27;86.36
60240;BME280;46102;39.012;-7.064;2023-02-22T00:41:13;98793.75;;;10.24;85.99
60240;BME280;46102;39.012;-7.064;2023-02-22T00:43:14;98789.72;;;10.21;85.97
60240;BME280;46102;39.012;-7.064;2023-02-22T00:45:19;98792.34;;;10.27;85.93
60240;BME280;46102;39.012;-7.064;2023-02-22T00:47:20;98790.22;;;10.24;85.97
60240;BME280;46102;39.012;-7.064;2023-02-22T00:49:22;98790.34;;;10.18;86.15
60240;BME280;46102;39.012;-7.064;2023-02-22T00:51:26;98788.72;;;10.17;86.09
60240;BME280;46102;39.012;-7.064;2023-02-22T00:53:28;98788.81;;;10.12;86.18
60240;BME280;46102;39.012;-7.064;2023-02-22T00:55:31;98791.78;;;10.16;85.97
60240;BME280;46102;39.012;-7.064;2023-02-22T00:57:33;98795.63;;;10.15;86.03
60240;BME280;46102;39.012;-7.064;2023-02-22T00:59:36;98790.47;;;10.13;85.67
60240;BME280;46102;39.012;-7.064;2023-02-22T01:01:37;98794.31;;;10.12;85.92
60240;BME280;46102;39.012;-7.064;2023-02-22T01:03:38;98793.28;;;10.08;85.88
60240;BME280;46102;39.012;-7.064;2023-02-22T01:05:41;98788.44;;;10.05;85.85
60240;BME280;46102;39.012;-7.064;2023-02-22T01:07:42;98791.69;;;10.07;85.76
60240;BME280;46102;39.012;-7.064;2023-02-22T01:09:43;98792.63;;;10.03;85.96
60240;BME280;46102;39.012;-7.064;2023-02-22T01:11:43;98793.22;;;9.99;85.87
60240;BME280;46102;39.012;-7.064;2023-02-22T01:13:44;98795.78;;;9.96;86.02
60240;BME280;46102;39.012;-7.064;2023-02-22T01:15:45;98793.31;;;9.94;86.14
60240;BME280;46102;39.012;-7.064;2023-02-22T01:17:48;98788.06;;;9.98;86.20
60240;BME280;46102;39.012;-7.064;2023-02-22T01:19:49;98785.72;;;9.91;86.20
60240;BME280;46102;39.012;-7.064;2023-02-22T01:21:51;98783.59;;;9.88;85.94
60240;BME280;46102;39.012;-7.064;2023-02-22T01:23:52;98788.38;;;9.83;86.11
60240;BME280;46102;39.012;-7.064;2023-02-22T01:25:54;98783.53;;;9.79;86.31
60240;BME280;46102;39.012;-7.064;2023-02-22T01:27:56;98784.00;;;9.82;86.23
60240;BME280;46102;39.012;-7.064;2023-02-22T01:29:57;98781.50;;;9.71;86.65
60240;BME280;46102;39.012;-7.064;2023-02-22T01:31:59;98785.03;;;9.72;86.97
60240;BME280;46102;39.012;-7.064;2023-02-22T01:34:01;98788.69;;;9.67;87.10
60240;BME280;46102;39.012;-7.064;2023-02-22T01:36:03;98789.31;;;9.64;87.29
60240;BME280;46102;39.012;-7.064;2023-02-22T01:38:04;98791.03;;;9.60;87.17
60240;BME280;46102;39.012;-7.064;2023-02-22T01:40:07;98784.25;;;9.57;87.49
60240;BME280;46102;39.012;-7.064;2023-02-22T01:42:09;98789.91;;;9.61;87.55
60240;BME280;46102;39.012;-7.064;2023-02-22T01:44:29;98776.84;;;9.58;87.03
60240;BME280;46102;39.012;-7.064;2023-02-22T01:46:32;98777.53;;;9.50;87.76
60240;BME280;46102;39.012;-7.064;2023-02-22T01:48:38;98771.53;;;9.48;87.90
60240;BME280;46102;39.012;-7.064;2023-02-22T01:50:47;98772.69;;;9.47;87.52
60240;BME280;46102;39.012;-7.064;2023-02-22T01:52:52;98766.97;;;9.43;87.94
60240;BME280;46102;39.012;-7.064;2023-02-22T01:54:56;98773.59;;;9.42;87.37
60240;BME280;46102;39.012;-7.064;2023-02-22T01:57:12;98776.44;;;9.51;87.10
60240;BME280;46102;39.012;-7.064;2023-02-22T01:59:15;98776.22;;;9.47;87.30
60240;BME280;46102;39.012;-7.064;2023-02-22T02:01:19;98771.06;;;9.46;87.29
60240;BME280;46102;39.012;-7.064;2023-02-22T02:03:25;98771.88;;;9.46;87.44
60240;BME280;46102;39.012;-7.064;2023-02-22T02:05:28;98769.13;;;9.46;86.96
60240;BME280;46102;39.012;-7.064;2023-02-22T02:07:31;98772.16;;;9.45;87.25
60240;BME280;46102;39.012;-7.064;2023-02-22T02:11:35;98760.91;;;9.46;87.45
60240;BME280;46102;39.012;-7.064;2023-02-22T02:13:39;98767.31;;;9.42;86.99
60240;BME280;46102;39.012;-7.064;2023-02-22T02:15:41;98757.78;;;9.39;87.57
60240;BME280;46102;39.012;-7.064;2023-02-22T02:17:41;98763.44;;;9.43;87.01
60240;BME280;46102;39.012;-7.064;2023-02-22T02:19:59;98770.56;;;9.44;87.23
60240;BME280;46102;39.012;-7.064;2023-02-22T02:24:48;98767.19;;;9.33;87.85
60240;BME280;46102;39.012;-7.064;2023-02-22T02:27:09;98767.09;;;9.38;87.35
60240;BME280;46102;39.012;-7.064;2023-02-22T02:29:41;98762.00;;;9.31;87.50
60240;BME280;46102;39.012;-7.064;2023-02-22T02:32:01;98768.91;;;9.29;87.77
60240;BME280;46102;39.012;-7.064;2023-02-22T02:41:18;98756.53;;;9.17;87.42
60240;BME280;46102;39.012;-7.064;2023-02-22T02:45:50;98762.13;;;9.12;87.39
60240;BME280;46102;39.012;-7.064;2023-02-22T02:47:56;98760.81;;;9.10;87.32
60240;BME280;46102;39.012;-7.064;2023-02-22T02:50:07;98773.47;;;9.06;87.60
60240;BME280;46102;39.012;-7.064;2023-02-22T02:52:10;98768.28;;;9.04;88.07
60240;BME280;46102;39.012;-7.064;2023-02-22T02:54:13;98763.09;;;9.03;87.84
60240;BME280;46102;39.012;-7.064;2023-02-22T02:56:14;98762.09;;;8.99;87.80
60240;BME280;46102;39.012;-7.064;2023-02-22T02:58:20;98761.06;;;8.94;88.66
60240;BME280;46102;39.012;-7.064;2023-02-22T03:00:26;98763.59;;;8.91;88.00
60240;BME280;46102;39.012;-7.064;2023-02-22T03:02:46;98754.56;;;8.90;88.53
60240;BME280;46102;39.012;-7.064;2023-02-22T03:07:51;98750.31;;;8.84;89.09
60240;BME280;46102;39.012;-7.064;2023-02-22T03:12:26;98736.22;;;8.77;89.40
60240;BME280;46102;39.012;-7.064;2023-02-22T03:16:54;98739.56;;;8.74;89.55
60240;BME280;46102;39.012;-7.064;2023-02-22T03:19:25;98740.97;;;8.71;89.94
60240;BME280;46102;39.012;-7.064;2023-02-22T03:23:55;98729.50;;;8.69;90.93
60240;BME280;46102;39.012;-7.064;2023-02-22T03:26:04;98738.53;;;8.70;90.21
60240;BME280;46102;39.012;-7.064;2023-02-22T03:28:13;98739.56;;;8.74;90.12
60240;BME280;46102;39.012;-7.064;2023-02-22T03:30:21;98734.09;;;8.74;90.33
60240;BME280;46102;39.012;-7.064;2023-02-22T03:32:28;98729.19;;;8.71;90.30
60240;BME280;46102;39.012;-7.064;2023-02-22T03:34:36;98732.44;;;8.73;90.34
60240;BME280;46102;39.012;-7.064;2023-02-22T03:36:53;98736.59;;;8.70;90.73
60240;BME280;46102;39.012;-7.064;2023-02-22T03:38:59;98737.22;;;8.67;90.62
60240;BME280;46102;39.012;-7.064;2023-02-22T03:41:01;98741.03;;;8.66;90.10
60240;BME280;46102;39.012;-7.064;2023-02-22T03:43:08;98736.69;;;8.65;89.87
60240;BME280;46102;39.012;-7.064;2023-02-22T03:45:15;98739.72;;;8.64;90.05
60240;BME280;46102;39.012;-7.064;2023-02-22T03:47:27;98742.44;;;8.64;89.87
60240;BME280;46102;39.012;-7.064;2023-02-22T03:49:50;98739.19;;;8.62;90.45
60240;BME280;46102;39.012;-7.064;2023-02-22T03:51:53;98743.25;;;8.64;90.47
60240;BME280;46102;39.012;-7.064;2023-02-22T03:53:55;98740.31;;;8.61;90.19
60240;BME280;46102;39.012;-7.064;2023-02-22T03:56:01;98744.25;;;8.54;89.95
60240;BME280;46102;39.012;-7.064;2023-02-22T03:58:10;98743.72;;;8.52;89.95
60240;BME280;46102;39.012;-7.064;2023-02-22T04:00:15;98747.66;;;8.46;90.78
60240;BME280;46102;39.012;-7.064;2023-02-22T04:02:17;98744.72;;;8.43;90.59
60240;BME280;46102;39.012;-7.064;2023-02-22T04:04:19;98730.59;;;8.36;91.16
60240;BME280;46102;39.012;-7.064;2023-02-22T04:06:21;98734.13;;;8.36;91.07
60240;BME280;46102;39.012;-7.064;2023-02-22T04:08:22;98729.75;;;8.35;90.64
60240;BME280;46102;39.012;-7.064;2023-02-22T04:10:23;98734.44;;;8.34;90.78
60240;BME280;46102;39.012;-7.064;2023-02-22T04:12:24;98732.22;;;8.37;90.86
60240;BME280;46102;39.012;-7.064;2023-02-22T04:14:31;98738.56;;;8.32;90.69
60240;BME280;46102;39.012;-7.064;2023-02-22T04:16:32;98735.94;;;8.27;91.55
60240;BME280;46102;39.012;-7.064;2023-02-22T04:18:33;98736.50;;;8.24;91.05
60240;BME280;46102;39.012;-7.064;2023-02-22T04:20:34;98735.78;;;8.18;91.54
60240;BME280;46102;39.012;-7.064;2023-02-22T04:22:44;98739.59;;;8.17;91.72
60240;BME280;46102;39.012;-7.064;2023-02-22T04:24:46;98743.97;;;8.18;91.61
60240;BME280;46102;39.012;-7.064;2023-02-22T04:26:50;98725.94;;;8.17;92.01
60240;BME280;46102;39.012;-7.064;2023-02-22T04:28:52;98729.00;;;8.16;91.51
60240;BME280;46102;39.012;-7.064;2023-02-22T04:30:56;98719.66;;;8.17;91.59
60240;BME280;46102;39.012;-7.064;2023-02-22T04:32:57;98722.41;;;8.17;91.72
60240;BME280;46102;39.012;-7.064;2023-02-22T04:34:58;98717.97;;;8.21;90.79
60240;BME280;46102;39.012;-7.064;2023-02-22T04:37:01;98728.00;;;8.25;90.87
60240;BME280;46102;39.012;-7.064;2023-02-22T04:39:03;98716.28;;;8.25;90.92
60240;BME280;46102;39.012;-7.064;2023-02-22T04:41:05;98722.13;;;8.18;90.56
60240;BME280;46102;39.012;-7.064;2023-02-22T04:43:06;98726.31;;;8.10;91.23
60240;BME280;46102;39.012;-7.064;2023-02-22T04:45:08;98717.53;;;8.13;90.91
60240;BME280;46102;39.012;-7.064;2023-02-22T04:47:09;98729.88;;;8.11;91.05
60240;BME280;46102;39.012;-7.064;2023-02-22T04:49:10;98719.16;;;8.14;90.79
60240;BME280;46102;39.012;-7.064;2023-02-22T04:51:12;98727.22;;;8.06;91.12
60240;BME280;46102;39.012;-7.064;2023-02-22T04:53:21;98733.50;;;8.06;91.27
60240;BME280;46102;39.012;-7.064;2023-02-22T04:55:22;98735.19;;;8.02;91.56
60240;BME280;46102;39.012;-7.064;2023-02-22T04:57:23;98735.78;;;7.99;91.71
60240;BME280;46102;39.012;-7.064;2023-02-22T04:59:24;98729.81;;;7.97;91.84
60240;BME280;46102;39.012;-7.064;2023-02-22T05:01:34;98730.31;;;7.99;92.59
60240;BME280;46102;39.012;-7.064;2023-02-22T05:03:37;98728.69;;;7.98;92.32
60240;BME280;46102;39.012;-7.064;2023-02-22T05:05:38;98733.66;;;7.96;92.28
60240;BME280;46102;39.012;-7.064;2023-02-22T05:07:38;98727.47;;;7.90;92.71
60240;BME280;46102;39.012;-7.064;2023-02-22T05:09:39;98732.69;;;7.87;93.01
60240;BME280;46102;39.012;-7.064;2023-02-22T05:11:40;98728.84;;;7.88;93.08
60240;BME280;46102;39.012;-7.064;2023-02-22T05:13:41;98729.06;;;7.91;92.73
60240;BME280;46102;39.012;-7.064;2023-02-22T05:15:41;98734.25;;;7.93;92.26
60240;BME280;46102;39.012;-7.064;2023-02-22T05:17:42;98735.34;;;7.92;92.98
60240;BME280;46102;39.012;-7.064;2023-02-22T05:19:43;98737.53;;;7.90;92.74
60240;BME280;46102;39.012;-7.064;2023-02-22T05:21:44;98744.66;;;7.91;92.41
60240;BME280;46102;39.012;-7.064;2023-02-22T05:23:44;98748.72;;;7.93;92.46
60240;BME280;46102;39.012;-7.064;2023-02-22T05:25:45;98745.75;;;7.90;92.05
60240;BME280;46102;39.012;-7.064;2023-02-22T05:27:56;98746.63;;;7.85;91.79
60240;BME280;46102;39.012;-7.064;2023-02-22T05:29:57;98746.63;;;7.85;92.55
60240;BME280;46102;39.012;-7.064;2023-02-22T05:31:58;98752.63;;;7.87;92.28
60240;BME280;46102;39.012;-7.064;2023-02-22T05:34:01;98746.19;;;7.78;92.71
60240;BME280;46102;39.012;-7.064;2023-02-22T05:36:02;98746.19;;;7.78;91.79
60240;BME280;46102;39.012;-7.064;2023-02-22T05:38:03;98750.31;;;7.76;92.57
60240;BME280;46102;39.012;-7.064;2023-02-22T05:40:05;98752.81;;;7.72;92.05
60240;BME280;46102;39.012;-7.064;2023-02-22T05:42:07;98748.53;;;7.66;92.36
60240;BME280;46102;39.012;-7.064;2023-02-22T05:44:07;98755.91;;;7.65;92.10
60240;BME280;46102;39.012;-7.064;2023-02-22T05:46:08;98764.16;;;7.60;92.23
60240;BME280;46102;39.012;-7.064;2023-02-22T05:48:09;98754.94;;;7.56;92.58
60240;BME280;46102;39.012;-7.064;2023-02-22T05:50:13;98754.41;;;7.54;92.94
60240;BME280;46102;39.012;-7.064;2023-02-22T05:52:14;98762.31;;;7.56;92.16
60240;BME280;46102;39.012;-7.064;2023-02-22T05:54:15;98763.44;;;7.55;92.24
60240;BME280;46102;39.012;-7.064;2023-02-22T05:56:21;98760.75;;;7.49;92.32
60240;BME280;46102;39.012;-7.064;2023-02-22T05:58:22;98762.66;;;7.49;91.48
60240;BME280;46102;39.012;-7.064;2023-02-22T06:00:25;98762.47;;;7.45;92.23
60240;BME280;46102;39.012;-7.064;2023-02-22T06:02:27;98766.09;;;7.36;92.59
60240;BME280;46102;39.012;-7.064;2023-02-22T06:04:28;98767.22;;;7.35;92.52
60240;BME280;46102;39.012;-7.064;2023-02-22T06:06:28;98774.59;;;7.34;92.92
60240;BME280;46102;39.012;-7.064;2023-02-22T06:08:29;98773.47;;;7.35;92.55
60240;BME280;46102;39.012;-7.064;2023-02-22T06:10:30;98768.03;;;7.35;92.77
60240;BME280;46102;39.012;-7.064;2023-02-22T06:12:31;98774.25;;;7.41;92.44
60240;BME280;46102;39.012;-7.064;2023-02-22T06:14:32;98765.47;;;7.44;92.54
60240;BME280;46102;39.012;-7.064;2023-02-22T06:16:32;98770.13;;;7.43;92.33
60240;BME280;46102;39.012;-7.064;2023-02-22T06:18:33;98770.16;;;7.38;92.36
60240;BME280;46102;39.012;-7.064;2023-02-22T06:20:34;98775.34;;;7.40;92.06
60240;BME280;46102;39.012;-7.064;2023-02-22T06:22:35;98766.63;;;7.38;92.17
60240;BME280;46102;39.012;-7.064;2023-02-22T06:24:37;98769.06;;;7.39;91.62
60240;BME280;46102;39.012;-7.064;2023-02-22T06:26:38;98769.34;;;7.38;92.47
60240;BME280;46102;39.012;-7.064;2023-02-22T06:28:39;98767.44;;;7.38;92.27
60240;BME280;46102;39.012;-7.064;2023-02-22T06:30:40;98770.69;;;7.40;91.97
60240;BME280;46102;39.012;-7.064;2023-02-22T06:32:44;98766.28;;;7.44;90.98
60240;BME280;46102;39.012;-7.064;2023-02-22T06:34:45;98767.09;;;7.45;91.33
60240;BME280;46102;39.012;-7.064;2023-02-22T06:36:45;98772.53;;;7.45;91.12
60240;BME280;46102;39.012;-7.064;2023-02-22T06:38:47;98768.47;;;7.42;91.20
60240;BME280;46102;39.012;-7.064;2023-02-22T06:40:48;98770.94;;;7.44;91.13
60240;BME280;46102;39.012;-7.064;2023-02-22T06:42:49;98770.94;;;7.44;91.25
60240;BME280;46102;39.012;-7.064;2023-02-22T06:44:50;98772.84;;;7.43;90.93
60240;BME280;46102;39.012;-7.064;2023-02-22T06:46:50;98773.94;;;7.42;91.33
60240;BME280;46102;39.012;-7.064;2023-02-22T06:48:51;98778.66;;;7.37;90.75
60240;BME280;46102;39.012;-7.064;2023-02-22T06:50:52;98774.06;;;7.32;91.73
60240;BME280;46102;39.012;-7.064;2023-02-22T06:52:53;98780.88;;;7.35;91.27
60240;BME280;46102;39.012;-7.064;2023-02-22T06:54:54;98783.06;;;7.33;91.81
60240;BME280;46102;39.012;-7.064;2023-02-22T06:56:55;98772.16;;;7.33;91.34
60240;BME280;46102;39.012;-7.064;2023-02-22T06:58:56;98777.59;;;7.33;91.12
60240;BME280;46102;39.012;-7.064;2023-02-22T07:00:56;98780.09;;;7.29;91.82
60240;BME280;46102;39.012;-7.064;2023-02-22T07:02:58;98777.38;;;7.29;91.56
60240;BME280;46102;39.012;-7.064;2023-02-22T07:04:59;98775.75;;;7.28;91.41
60240;BME280;46102;39.012;-7.064;2023-02-22T07:06:59;98771.91;;;7.29;91.35
60240;BME280;46102;39.012;-7.064;2023-02-22T07:09:00;98774.06;;;7.32;90.75
60240;BME280;46102;39.012;-7.064;2023-02-22T07:11:02;98774.34;;;7.30;91.01
60240;BME280;46102;39.012;-7.064;2023-02-22T07:13:04;98776.50;;;7.34;90.98
60240;BME280;46102;39.012;-7.064;2023-02-22T07:15:05;98783.06;;;7.33;90.73
60240;BME280;46102;39.012;-7.064;2023-02-22T07:17:06;98779.28;;;7.28;90.79
60240;BME280;46102;39.012;-7.064;2023-02-22T07:19:07;98773.56;;;7.30;89.99
60240;BME280;46102;39.012;-7.064;2023-02-22T07:21:08;98774.06;;;7.32;90.04
60240;BME280;46102;39.012;-7.064;2023-02-22T07:23:13;98775.47;;;7.29;90.05
60240;BME280;46102;39.012;-7.064;2023-02-22T07:25:14;98774.09;;;7.27;89.85
60240;BME280;46102;39.012;-7.064;2023-02-22T07:27:15;98779.28;;;7.28;89.95
60240;BME280;46102;39.012;-7.064;2023-02-22T07:29:17;98780.63;;;7.31;89.27
60240;BME280;46102;39.012;-7.064;2023-02-22T07:31:18;98780.56;;;7.36;89.14
60240;BME280;46102;39.012;-7.064;2023-02-22T07:33:18;98784.13;;;7.37;88.40
60240;BME280;46102;39.012;-7.064;2023-02-22T07:48:02;98788.47;;;7.81;86.99
60240;BME280;46102;39.012;-7.064;2023-02-22T07:50:04;98798.47;;;7.90;86.56
60240;BME280;46102;39.012;-7.064;2023-02-22T07:52:05;98794.50;;;8.02;86.01
60240;BME280;46102;39.012;-7.064;2023-02-22T07:54:07;98798.47;;;8.09;85.21
60240;BME280;46102;39.012;-7.064;2023-02-22T07:56:07;98796.72;;;8.19;84.55
60240;BME280;46102;39.012;-7.064;2023-02-22T07:58:11;98797.91;;;8.31;83.30
60240;BME280;46102;39.012;-7.064;2023-02-22T08:00:15;98806.53;;;8.39;82.98
60240;BME280;46102;39.012;-7.064;2023-02-22T08:02:16;98805.69;;;8.43;82.69
60240;BME280;46102;39.012;-7.064;2023-02-22T08:04:17;98800.13;;;8.48;82.39
60240;BME280;46102;39.012;-7.064;2023-02-22T08:06:19;98801.16;;;8.52;82.35
60240;BME280;46102;39.012;-7.064;2023-02-22T08:08:20;98804.03;;;8.61;81.33
60240;BME280;46102;39.012;-7.064;2023-02-22T08:10:23;98806.00;;;8.74;81.50
60240;BME280;46102;39.012;-7.064;2023-02-22T08:12:24;98814.88;;;8.85;80.91
60240;BME280;46102;39.012;-7.064;2023-02-22T08:14:25;98814.69;;;8.95;80.74
60240;BME280;46102;39.012;-7.064;2023-02-22T08:16:26;98818.34;;;9.05;80.41
60240;BME280;46102;39.012;-7.064;2023-02-22T08:18:26;98814.94;;;9.13;80.23
60240;BME280;46102;39.012;-7.064;2023-02-22T08:20:28;98826.41;;;9.29;79.76
60240;BME280;46102;39.012;-7.064;2023-02-22T08:22:29;98832.13;;;9.46;79.28
60240;BME280;46102;39.012;-7.064;2023-02-22T08:24:30;98827.03;;;9.67;78.08
60240;BME280;46102;39.012;-7.064;2023-02-22T08:26:32;98819.44;;;9.78;77.63
60240;BME280;46102;39.012;-7.064;2023-02-22T08:28:33;98828.06;;;9.85;76.89
60240;BME280;46102;39.012;-7.064;2023-02-22T08:30:34;98821.16;;;9.88;76.83
60240;BME280;46102;39.012;-7.064;2023-02-22T08:32:35;98829.06;;;9.89;77.00
60240;BME280;46102;39.012;-7.064;2023-02-22T08:34:36;98833.00;;;9.97;76.41
60240;BME280;46102;39.012;-7.064;2023-02-22T08:36:41;98840.28;;;10.15;76.38
60240;BME280;46102;39.012;-7.064;2023-02-22T08:38:42;98843.94;;;10.38;75.43
60240;BME280;46102;39.012;-7.064;2023-02-22T08:40:43;98839.94;;;10.58;74.91
60240;BME280;46102;39.012;-7.064;2023-02-22T08:42:44;98836.75;;;10.88;73.88
60240;BME280;46102;39.012;-7.064;2023-02-22T08:44:45;98840.53;;;11.23;72.74
60240;BME280;46102;39.012;-7.064;2023-02-22T08:46:46;98845.16;;;11.45;71.59
60240;BME280;46102;39.012;-7.064;2023-02-22T08:48:49;98845.66;;;11.47;70.80
60240;BME280;46102;39.012;-7.064;2023-02-22T08:50:50;98836.94;;;11.45;70.74
60240;BME280;46102;39.012;-7.064;2023-02-22T08:52:53;98835.47;;;11.48;71.06
60240;BME280;46102;39.012;-7.064;2023-02-22T08:54:54;98835.22;;;11.58;70.71
60240;BME280;46102;39.012;-7.064;2023-02-22T08:56:55;98834.16;;;11.76;70.84
60240;BME280;46102;39.012;-7.064;2023-02-22T08:58:56;98834.25;;;12.11;69.71
60240;BME280;46102;39.012;-7.064;2023-02-22T09:00:57;98835.91;;;12.38;69.15
60240;BME280;46102;39.012;-7.064;2023-02-22T09:02:59;98828.19;;;12.66;68.26
60240;BME280;46102;39.012;-7.064;2023-02-22T09:05:00;98830.44;;;12.99;67.62
60240;BME280;46102;39.012;-7.064;2023-02-22T09:07:00;98832.97;;;13.22;66.65
60240;BME280;46102;39.012;-7.064;2023-02-22T09:09:02;98826.94;;;13.37;64.76
60240;BME280;46102;39.012;-7.064;2023-02-22T09:11:02;98829.84;;;13.49;65.80
60240;BME280;46102;39.012;-7.064;2023-02-22T09:13:03;98820.69;;;13.66;64.96
60240;BME280;46102;39.012;-7.064;2023-02-22T09:15:04;98828.44;;;13.73;64.42
60240;BME280;46102;39.012;-7.064;2023-02-22T09:17:05;98822.69;;;13.87;64.29
60240;BME280;46102;39.012;-7.064;2023-02-22T09:19:06;98825.88;;;13.98;63.71
60240;BME280;46102;39.012;-7.064;2023-02-22T09:21:07;98825.31;;;14.13;62.78
60240;BME280;46102;39.012;-7.064;2023-02-22T09:23:08;98827.69;;;14.23;61.56
60240;BME280;46102;39.012;-7.064;2023-02-22T09:25:09;98825.56;;;14.20;62.21
60240;BME280;46102;39.012;-7.064;2023-02-22T09:27:10;98828.00;;;14.22;61.63
60240;BME280;46102;39.012;-7.064;2023-02-22T09:29:12;98824.56;;;14.25;61.66
60240;BME280;46102;39.012;-7.064;2023-02-22T09:31:13;98827.47;;;14.28;61.36
60240;BME280;46102;39.012;-7.064;2023-02-22T09:33:16;98827.38;;;14.46;60.40
60240;BME280;46102;39.012;-7.064;2023-02-22T09:35:17;98822.78;;;14.50;60.26
60240;BME280;46102;39.012;-7.064;2023-02-22T09:37:18;98827.84;;;14.48;60.40
60240;BME280;46102;39.012;-7.064;2023-02-22T09:39:19;98824.94;;;14.65;60.44
60240;BME280;46102;39.012;-7.064;2023-02-22T09:41:28;98826.22;;;14.89;59.85
60240;BME280;46102;39.012;-7.064;2023-02-22T09:45:38;98820.13;;;15.29;58.57
60240;BME280;46102;39.012;-7.064;2023-02-22T09:47:49;98817.41;;;15.41;57.70
60240;BME280;46102;39.012;-7.064;2023-02-22T09:50:08;98817.41;;;15.53;56.94
60240;BME280;46102;39.012;-7.064;2023-02-22T09:54:28;98820.00;;;15.71;56.96
60240;BME280;46102;39.012;-7.064;2023-02-22T09:56:34;98821.75;;;15.88;56.38
60240;BME280;46102;39.012;-7.064;2023-02-22T09:58:39;98811.91;;;15.78;56.82
60240;BME280;46102;39.012;-7.064;2023-02-22T10:00:44;98821.94;;;15.82;57.03
60240;BME280;46102;39.012;-7.064;2023-02-22T10:03:02;98819.66;;;15.85;56.03
60240;BME280;46102;39.012;-7.064;2023-02-22T10:05:26;98820.78;;;15.96;56.04
60240;BME280;46102;39.012;-7.064;2023-02-22T10:07:36;98813.97;;;16.18;55.51
60240;BME280;46102;39.012;-7.064;2023-02-22T10:09:41;98816.38;;;16.32;55.17
60240;BME280;46102;39.012;-7.064;2023-02-22T10:11:59;98813.81;;;16.39;54.62
60240;BME280;46102;39.012;-7.064;2023-02-22T10:16:19;98822.38;;;16.74;53.61
60240;BME280;46102;39.012;-7.064;2023-02-22T10:20:56;98813.75;;;17.04;52.38
60240;BME280;46102;39.012;-7.064;2023-02-22T10:25:16;98817.03;;;16.94;52.90
60240;BME280;46102;39.012;-7.064;2023-02-22T10:27:23;98812.28;;;16.94;52.91
60240;BME280;46102;39.012;-7.064;2023-02-22T10:29:38;98819.75;;;17.06;52.64
60240;BME280;46102;39.012;-7.064;2023-02-22T10:31:45;98825.72;;;17.08;52.59
60240;BME280;46102;39.012;-7.064;2023-02-22T10:33:55;98814.56;;;17.04;52.36
60240;BME280;46102;39.012;-7.064;2023-02-22T10:35:58;98810.16;;;17.03;52.38
60240;BME280;46102;39.012;-7.064;2023-02-22T10:38:10;98818.38;;;17.00;52.91
60240;BME280;46102;39.012;-7.064;2023-02-22T10:40:17;98817.72;;;17.19;52.43
60240;BME280;46102;39.012;-7.064;2023-02-22T10:42:25;98818.88;;;17.34;52.03
60240;BME280;46102;39.012;-7.064;2023-02-22T10:44:26;98823.84;;;17.56;51.74
60240;BME280;46102;39.012;-7.064;2023-02-22T10:46:29;98815.47;;;17.84;50.96
60240;BME280;46102;39.012;-7.064;2023-02-22T10:48:35;98819.03;;;17.85;50.84
60240;BME280;46102;39.012;-7.064;2023-02-22T10:50:39;98821.44;;;18.02;50.28
60240;BME280;46102;39.012;-7.064;2023-02-22T10:52:41;98824.31;;;18.06;49.77
60240;BME280;46102;39.012;-7.064;2023-02-22T10:54:45;98823.94;;;18.07;50.10
60240;BME280;46102;39.012;-7.064;2023-02-22T10:56:50;98823.75;;;18.00;50.18
60240;BME280;46102;39.012;-7.064;2023-02-22T10:58:55;98820.81;;;17.93;50.79
60240;BME280;46102;39.012;-7.064;2023-02-22T11:01:17;98822.31;;;18.06;50.98
60240;BME280;46102;39.012;-7.064;2023-02-22T11:03:21;98820.31;;;18.23;49.99
60240;BME280;46102;39.012;-7.064;2023-02-22T11:05:31;98817.91;;;18.21;50.26
60240;BME280;46102;39.012;-7.064;2023-02-22T11:07:35;98817.38;;;18.51;49.98
60240;BME280;46102;39.012;-7.064;2023-02-22T11:09:52;98821.03;;;18.75;48.41
60240;BME280;46102;39.012;-7.064;2023-02-22T11:12:20;98808.69;;;18.72;49.03
60240;BME280;46102;39.012;-7.064;2023-02-22T11:14:26;98806.44;;;18.97;48.73
60240;BME280;46102;39.012;-7.064;2023-02-22T11:16:39;98810.59;;;19.07;47.41
60240;BME280;46102;39.012;-7.064;2023-02-22T11:18:42;98812.44;;;18.99;47.92
60240;BME280;46102;39.012;-7.064;2023-02-22T11:20:43;98809.56;;;19.15;47.51
60240;BME280;46102;39.012;-7.064;2023-02-22T11:22:44;98808.03;;;19.18;47.21
60240;BME280;46102;39.012;-7.064;2023-02-22T11:24:57;98797.53;;;19.07;47.68
60240;BME280;46102;39.012;-7.064;2023-02-22T11:27:01;98800.69;;;19.29;47.54
60240;BME280;46102;39.012;-7.064;2023-02-22T11:31:27;98795.53;;;19.50;46.39
60240;BME280;46102;39.012;-7.064;2023-02-22T11:33:29;98799.72;;;19.64;46.08
60240;BME280;46102;39.012;-7.064;2023-02-22T11:35:35;98804.06;;;19.61;46.42
60240;BME280;46102;39.012;-7.064;2023-02-22T11:37:36;98802.69;;;19.74;46.12
60240;BME280;46102;39.012;-7.064;2023-02-22T11:39:37;98797.38;;;19.66;45.81
60240;BME280;46102;39.012;-7.064;2023-02-22T11:41:38;98793.72;;;19.62;45.99
60240;BME280;46102;39.012;-7.064;2023-02-22T11:43:39;98789.63;;;19.79;45.73